Skip to Main Content
SEARCH:
Location Air RH Dwp Precip Type Wind Speed Wind Gust Direction Pavement Temperature Date/Time
Hatem Bridge US 40 E/B 47 43 25 None 20 mph 23 mph N 71 - 71 4/20/2018 2:02:00 PM
I-270 at I-370 58 33 29 None Calm 4 mph NW 81 - 91 4/20/2018 2:00:00 PM
I-270 at MD-109 54 35 27 None 11 mph 24 mph W 83 - 84 4/20/2018 2:00:00 PM
I-495 at American Legion Bridge 55 33 27 None 5 mph 13 mph NW 84 - 84 4/20/2018 2:00:00 PM
I-68 at Savage Mt 45 45 25 None 4 mph 13 mph SW 77 - 82 4/20/2018 2:00:00 PM
I-68 at Sideling Hill 50 38 26 None 10 mph 23 mph N 84 - 87 4/20/2018 2:00:00 PM
I-68 at US 219 42 49 25 None 12 mph 21 mph W 77 - 77 4/20/2018 2:00:00 PM
I-68 at WV Line 46 39 23 None 9 mph 20 mph W 70 - 78 4/20/2018 2:00:00 PM
I-695 at I-83 53 38 28 None 4 mph 13 mph N 77 - 82 4/20/2018 2:00:00 PM
I-695 on FSK Bridge 49 37 24 None 21 mph 24 mph E 76 - 76 4/20/2018 2:02:00 PM
I-70 at Fred-Wash Co. 51 39 27 None 10 mph 26 mph W 82 - 87 4/20/2018 2:00:00 PM
I-70 at I-695 51 37 26 None 5 mph 14 mph NW 81 - 85 4/20/2018 2:00:00 PM
I-70 at I-81 54 35 27 None 13 mph 24 mph NW - 4/20/2018 2:00:00 PM
I-70 at MD-27 52 41 29 None 5 mph 18 mph N 82 - 87 4/20/2018 2:00:00 PM
I-70 at MD-32 51 38 27 None 7 mph 18 mph NW 93 - 93 4/20/2018 2:00:00 PM
I-83 at MD-137 51 40 28 None 6 mph 13 mph SW 83 - 83 4/20/2018 2:00:00 PM
I-95 at I-695 NE 51 36 25 None 11 mph 15 mph NW 81 - 94 4/20/2018 2:02:00 PM
I-95 at Patuxent River 54 34 26 None 5 mph 12 mph NW 77 - 81 4/20/2018 2:00:00 PM
I-95 at Tydings Bridge 54 38 29 None 4 mph 12 mph N - 4/20/2018 2:00:00 PM
I-95/495 at I-295 59 31 29 None 6 mph 12 mph W 71 - 81 4/20/2018 2:00:00 PM
I-97 at MD-100 55 34 27 None 13 mph 23 mph NW 80 - 86 4/20/2018 2:00:00 PM
I-97 at MD-32 54 33 25 None 11 mph 18 mph N 78 - 86 4/20/2018 2:00:00 PM
IS 70 W of I-270 - - - No Data Available - - No Data Available 89 - 89 4/20/2018 2:00:00 PM
MD 20 at MD 21 51 41 28 None 7 mph 11 mph NW 96 - 96 4/20/2018 2:00:00 PM
MD 23 at Meadowtree Road 49 43 28 No Data Available 4 mph 11 mph N 93 - 93 4/20/2018 2:00:00 PM
MD 231 at Patuxent River 54 33 25 None 13 mph 20 mph NW 87 - 90 4/20/2018 2:00:00 PM
MD 24 at Jarrettsville Road 50 40 27 No Data Available 4 mph 13 mph N 95 - 95 4/20/2018 2:00:00 PM
MD 260 at Cox Rd 56 30 25 None Calm 10 mph W 98 - 98 4/20/2018 2:00:00 PM
MD-135 at Salt Dome 44 53 28 None 6 mph 17 mph NW 85 - 85 4/20/2018 2:00:00 PM
MD-140 at MD-97 49 43 28 None 10 mph 22 mph W 81 - 90 4/20/2018 2:00:00 PM
MD-200 EB at Bonifant Rd 53 34 26 None 13 mph 24 mph NW 76 - 86 4/20/2018 2:02:00 PM
MD-200 WB at Muncaster Mill Rd 53 33 25 None 4 mph 13 mph NE 85 - 87 4/20/2018 2:02:00 PM
MD-213 at Sassafras River 49 47 30 None 9 mph 16 mph NW 86 - 86 4/20/2018 2:00:00 PM
MD-24 at Rock St Park 51 41 28 None 7 mph 16 mph NE 85 - 85 4/20/2018 2:00:00 PM
MD-30 at PA Line 47 49 29 None 12 mph 21 mph NW 84 - 84 4/20/2018 2:00:00 PM
MD-33 at Knapps Narrows Drawbridge 52 41 29 None 7 mph 12 mph NW 104 - 104 4/20/2018 2:00:00 PM
MD-344 at MD-224 55 33 27 None 5 mph 14 mph W 98 - 98 4/20/2018 2:00:00 PM
MD-4 at Patuxent River 55 40 32 None 26 mph 30 mph NW 81 - 89 4/20/2018 2:02:00 PM
MD-404 at Choptank River - - - No Data Available - - No Data Available -
MD-43 at MD-150 53 36 27 None 10 mph 22 mph NW 85 - 88 4/20/2018 2:00:00 PM
MD-51 at Oldtown Salt Dome 54 33 25 None 6 mph 15 mph W 94 - 94 4/20/2018 2:00:00 PM
MD-64 at MD-418 50 42 28 None 14 mph 20 mph NW 89 - 91 4/20/2018 2:00:00 PM
US 301 at MD 305 50 44 29 None 14 mph 18 mph W 89 - 90 4/20/2018 2:00:00 PM
US-1 at Baltimore / Harford Co. Line 50 38 26 None 7 mph 15 mph N 82 - 84 4/20/2018 2:00:00 PM
US-1 at Conowingo Dam 54 37 29 None 4 mph 9 mph W 91 - 91 4/20/2018 2:00:00 PM
US-13 at US-113 49 43 28 None 13 mph 21 mph NW 95 - 97 4/20/2018 2:00:00 PM
US-13 at US-50 50 41 28 None 8 mph 20 mph N 81 - 81 4/20/2018 2:00:00 PM
US-15 at MD-140 53 35 26 None 8 mph 18 mph NW 88 - 88 4/20/2018 2:00:00 PM
US-301 at MD-5 54 31 25 None 5 mph 16 mph W 82 - 91 4/20/2018 2:00:00 PM
US-301 at Potomac 55 49 37 None 10 mph 13 mph N 71 - 85 4/20/2018 2:02:00 PM
US-340 at MD-180 52 37 27 None 17 mph 31 mph NW 87 - 87 4/20/2018 2:00:00 PM
US-50 at Choptank 51 51 33 None 10 mph 19 mph W 80 - 83 4/20/2018 2:00:00 PM
US-50 at I-95 55 33 27 None 7 mph 19 mph NW 79 - 90 4/20/2018 2:00:00 PM
US-50 at MD-2 53 35 27 None 8 mph 14 mph NW 70 - 84 4/20/2018 2:00:00 PM
US-50 at MD-331 51 44 31 None 7 mph 13 mph N 83 - 89 4/20/2018 2:00:00 PM
US-50 at OC Drawbridge 52 39 28 None 14 mph 24 mph NW 92 - 92 4/20/2018 2:00:00 PM
US-50 at Table Rock Rd 43 52 27 None 10 mph 20 mph NW 89 - 89 4/20/2018 2:00:00 PM
US-50 Kent Narrow Bridge 52 44 31 None 6 mph 13 mph N 78 - 82 4/20/2018 2:00:00 PM
WPL Pier 31 47 47 28 None 11 mph 12 mph N 81 - 81 4/20/2018 2:02:00 PM
Location Air RH Dwp Precip Type Wind Speed Wind Gust Direction Pavement Temperature Date/Time